createdAt,value
2022-11-08T00:03:31.292Z,99573.66
2022-11-08T00:13:54.549Z,99585.23
2022-11-08T00:24:00.208Z,99587.23
2022-11-08T00:34:05.805Z,99585.19
2022-11-08T00:44:11.484Z,99590.39
2022-11-08T00:54:19.081Z,99588.91
2022-11-08T01:04:24.668Z,99587.61
2022-11-08T01:14:31.217Z,99589.04
2022-11-08T01:24:36.908Z,99582.95
2022-11-08T01:34:42.502Z,99582.85
2022-11-08T01:45:02.175Z,99587.69
2022-11-08T01:55:18.666Z,99583.98
2022-11-08T02:05:27.294Z,99578.33
2022-11-08T02:15:33.145Z,99571.85
2022-11-08T02:25:38.741Z,99565.38
2022-11-08T02:35:45.717Z,99565.71
2022-11-08T02:45:51.944Z,99567.19
2022-11-08T02:55:57.664Z,99562.64
2022-11-08T03:06:03.353Z,99556.98
2022-11-08T03:16:09.895Z,99567.45
2022-11-08T03:26:15.434Z,99577.98
2022-11-08T03:36:20.944Z,99575.30
2022-11-08T03:46:26.504Z,99574.91
2022-11-08T03:56:32.094Z,99580.41
2022-11-08T04:06:37.679Z,99586.30
2022-11-08T04:16:43.331Z,99583.39
2022-11-08T04:26:49.183Z,99584.60
2022-11-08T04:36:54.727Z,99584.23
2022-11-08T04:47:00.360Z,99579.48
2022-11-08T04:57:06.070Z,99578.84
2022-11-08T05:07:11.649Z,99587.03
2022-11-08T05:17:17.207Z,99589.94
2022-11-08T05:27:22.716Z,99595.32
2022-11-08T05:37:28.229Z,99603.95
2022-11-08T05:47:33.817Z,99606.14
2022-11-08T05:57:42.479Z,99603.71
2022-11-08T06:07:48.072Z,99606.45
2022-11-08T06:17:53.685Z,99613.55
2022-11-08T06:28:01.942Z,99612.33
2022-11-08T06:38:09.450Z,99613.33
2022-11-08T06:48:15.365Z,99620.95
2022-11-08T06:58:20.963Z,99623.02
2022-11-08T07:08:26.963Z,99614.06
2022-11-08T07:18:32.916Z,99610.84
2022-11-08T07:28:38.652Z,99601.65
2022-11-08T07:38:44.260Z,99604.67
2022-11-08T07:48:49.841Z,99609.67
2022-11-08T07:58:55.507Z,99613.07
2022-11-08T08:09:01.136Z,99617.52
2022-11-08T08:19:07.449Z,99609.90
2022-11-08T08:29:11.576Z,99604.60
2022-11-08T08:39:17.261Z,99596.79
2022-11-08T08:49:22.978Z,99598.58
2022-11-08T09:09:55.981Z,99588.52
2022-11-08T09:20:01.614Z,99587.24
2022-11-08T09:30:09.125Z,99590.00
2022-11-08T09:40:19.051Z,99588.15
2022-11-08T09:50:31.915Z,99585.13
2022-11-08T10:00:41.229Z,99592.27
2022-11-08T10:11:10.471Z,99588.05
2022-11-08T10:21:32.566Z,99579.44
2022-11-08T10:31:41.645Z,99577.86
2022-11-08T10:41:53.875Z,99575.89
2022-11-08T10:52:01.005Z,99562.20
2022-11-08T11:02:20.871Z,99561.38
2022-11-08T11:12:26.659Z,99558.27
2022-11-08T11:22:34.520Z,99542.23
2022-11-08T11:32:40.398Z,99542.15
2022-11-08T11:42:55.381Z,99545.82
2022-11-08T11:53:04.905Z,99536.29
2022-11-08T12:03:37.931Z,99533.41
2022-11-08T12:13:54.688Z,99527.71
2022-11-08T12:24:23.141Z,99517.15
2022-11-08T12:34:36.173Z,99511.86
2022-11-08T12:44:57.356Z,99501.20
2022-11-08T12:55:07.073Z,99496.73
2022-11-08T13:05:20.503Z,99505.88
2022-11-08T13:15:28.231Z,99501.83
2022-11-08T13:25:41.928Z,99496.23
2022-11-08T13:35:57.457Z,99481.34
2022-11-08T13:46:33.839Z,99477.91
2022-11-08T13:56:53.979Z,99473.69
2022-11-08T14:07:07.941Z,99476.30
2022-11-08T14:17:29.942Z,99476.08
2022-11-08T14:27:38.152Z,99473.10
2022-11-08T14:37:45.549Z,99468.10
2022-11-08T14:47:55.406Z,99465.30
2022-11-08T14:58:15.175Z,99462.41
2022-11-08T15:08:27.334Z,99466.50
2022-11-08T15:18:37.002Z,99467.04
2022-11-08T15:28:42.640Z,99458.77
2022-11-08T15:38:51.571Z,99454.06
2022-11-08T15:49:03.041Z,99452.17
2022-11-08T15:59:10.867Z,99454.36
2022-11-08T16:09:16.470Z,99462.52
2022-11-08T16:19:23.887Z,99461.57
2022-11-08T16:29:30.380Z,99465.33
2022-11-08T16:39:36.800Z,99466.04
2022-11-08T16:49:43.305Z,99469.77
2022-11-08T16:59:51.609Z,99470.73
2022-11-08T17:09:57.181Z,99471.32
2022-11-08T17:20:02.782Z,99470.66
2022-11-08T17:30:10.624Z,99464.90
2022-11-08T17:40:15.657Z,99470.66
2022-11-08T17:50:21.309Z,99476.05
2022-11-08T18:00:27.108Z,99475.16
2022-11-08T18:10:32.706Z,99478.85
2022-11-08T18:20:38.283Z,99473.82
2022-11-08T18:30:47.722Z,99477.88
2022-11-08T18:40:53.840Z,99475.18
2022-11-08T18:50:59.537Z,99474.09
2022-11-08T19:01:06.508Z,99469.30
2022-11-08T19:11:13.079Z,99462.11
2022-11-08T19:21:20.511Z,99462.56
2022-11-08T19:31:27.156Z,99472.91
2022-11-08T19:41:32.693Z,99478.14
2022-11-08T19:51:38.401Z,99475.63
2022-11-08T20:01:44.217Z,99476.55
2022-11-08T20:11:50.191Z,99464.95
2022-11-08T20:21:58.369Z,99458.83
2022-11-08T20:32:04.042Z,99456.52
2022-11-08T20:42:09.768Z,99451.38
2022-11-08T20:52:16.952Z,99440.80
2022-11-08T21:02:22.826Z,99446.41
2022-11-08T21:12:28.726Z,99447.33
2022-11-08T21:22:34.935Z,99445.50
2022-11-08T21:32:40.889Z,99439.91
2022-11-08T21:42:48.953Z,99444.93
2022-11-08T21:52:54.788Z,99444.86
2022-11-08T22:03:00.669Z,99441.14
2022-11-08T22:13:06.384Z,99432.69
2022-11-08T22:23:12.172Z,99422.20
2022-11-08T22:33:17.963Z,99416.40
2022-11-08T22:43:24.268Z,99423.50
2022-11-08T22:53:30.711Z,99426.82
2022-11-08T23:03:36.724Z,99429.13
2022-11-08T23:14:00.467Z,99430.02
2022-11-08T23:24:23.895Z,99431.66
2022-11-08T23:34:29.904Z,99426.47
2022-11-08T23:44:35.744Z,99420.13
2022-11-08T23:54:41.358Z,99412.91
